GDY weather

Public forecast

Using degrees Fahrenheit for public forecast. Weather courtesy of forecast.io.

Closest aviation weather report (METAR) to Grundy Municipal Airport

Closest report is Tazewell County Airport, 18.6 nm (34.5 km) ESE. Retrieved 2020/08/09 02:35 UTC (11 minutes ago):

KJFZ 090235Z AUTO 00000KT 10SM BKN038 BKN044 21/17 A3028 RMK AO2 T02110171

Closest aviation forecast (TAF) to Grundy Municipal Airport

Closest forecast is Mercer County Airport, 44.0 nm (81.5 km) E. Retrieved 2020-08-09 00:24 UTC (2 hours ago):

TAF KBLF 082322Z 0900/0924 30003KT P6SM FEW250 FM090900 00000KT 4SM BR SCT080 FM091200 25005KT P6SM SKC